Portada
METAR-TAF:

METAR-TAF

Aeroports :

Bingöl, Turquia

latitud: 38-51-40N, longitud: 40-35-33E, altitud: 1063 m

Observació

L'informe es va fer fa 1 hora i 32 minuts, a les 12:50 UTC
Vent 5 kt amb direcció variable
Temperatura 30°C
Humitat 24%
Pressió 1007 hPa
Visibilitat 10 km o més
Núvols disperses a una alçada de 3500 ft

METAR: LTCU 161250Z VRB05KT 9999 SCT035 30/07 Q1007

Hora: 17:22 (14:22 UTC)

Pronòstic

L'informe es va fer fa 3 hores i 42 minuts, a les 10:40 UTC
Pronòstic vàlid del 16 a les 12 UTC al 16 a les 21 UTC
Vent 8 kt del Oest
Visibilitat 10 km o més
Núvols disperses a una alçada de 3500 ft
Evolucionant progressivament
l' 16 a les 15 UTC al 16 a les 18 UTC
Visibilitat 10 km o més
sense núvols per sota de 1500 mi sense presència de cumulonimbus.

TAF: LTCU 161040Z 1612/1621 27008KT 9999 SCT035 BECMG 1615/1618 CAVOK

Observacions i pronòstics meteorològics de més de 4000 aeroports (METAR i TAF).

Les estacions disponibles són els punts grocs i vermells al mapa.

Posi el ratolí al punt desitjat per veure el nom de l'estació.

Feu clic per veure les observacions i els pronòstics meteorològics.

Per canviar el mapa: feu clic els botons verds amb una creu de color negre per apropar; al botó verd amb un guió per allunyar la imatge; o en les fletxes verdes per a mapes adjacents.


METAR-TAF: